Airfield :







YOU CAN JOIN US ON...

 
LOGIN :

Register | Disclaimer

   EN    FR    IT 

 









Legend :    VFR   Marginal VFR   IFR   Intensive IFR   Very Intensive IFR
Visi :
Ceiling :
>= 8 km
>= 3000ft
5 to 8 km
1000 to 3000 ft
1500m to 5 km
500 to 1000 ft
800 to 1500m
200 to 500 ft
< 800m
< 200 ft
Symbols :   Thunderstorms  Fog  Heavy snow  Heavy precipitations  Wind > 20 kt







- Airport Elevation : 38 ft
- IATA code : YMH


CYMH - Mary's Harbour

CURRENT METAR :
  • 181600Z AUTO 35010KT 9SM CLR 01/M07 A3010 RMK SLP195

EXPIRED METARs :
  • 181500Z AUTO 35012G17KT 9SM FEW030 00/M08 A3010 RMK SLP194
  • 181400Z AUTO 34014G20KT 9SM OVC030 M01/M07 A3010 RMK SLP195

TAF TAF CYMH
Valid from the 18 at 14:00 until the 19 at 02:00 UTC


181338Z 1814/1902 33012G22KT P6SM BKN025
TEMPO 1814/1816 OVC020
FM181600 32010G20KT P6SM SCT020
TEMPO 1816/1818 BKN020
BECMG 1816/1818 31008KT
FM182100 26007KT P6SM FEW020 RMK FCST BASED ON AUTO OBS. NXT FCST BY 182000Z
CZQX FIR / North America



MET'MAP, your aeronautical weather chart ! - Copyright ORBIFLY December 2007 - Disclaimer

ORBIFLY MET'MAP TEAM :

Programming & Development : Alexandra Zaïnal
Concept & Development : Baudouin d'Aumeries
Co-Development & Prog : Marc-Olivier Méhu
Technical & hardware support : Manuel Goepfert

Contact : metmap@orbifly.com




SOURCES & CREDITS :

   NOAA